Time;durP1;ratioP1;P1;durP2;ratioP2;P2;SDS_P1;SDS_P2;PMS_P1;PMS_P2;Temp;Humidity;BMP_temperature;BMP_pressure;BME280_temperature;BME280_humidity;BME280_pressure;Samples;Min_cycle;Max_cycle;Signal;HPM_P1;HPM_P2
2021/05/31 00:02:19;;;;;;;4.47;4.03;;;10.60;99.90;;;;;;5076342;28;20291;-59
2021/05/31 00:04:46;;;;;;;4.00;3.57;;;10.60;99.90;;;;;;5093632;28;20223;-59
2021/05/31 00:07:17;;;;;;;5.97;4.17;;;10.60;99.90;;;;;;5096547;28;20299;-59
2021/05/31 00:09:46;;;;;;;4.83;3.83;;;10.60;99.90;;;;;;5096239;28;20632;-59
2021/05/31 00:12:16;;;;;;;4.97;4.47;;;10.60;99.90;;;;;;5096201;28;20210;-60
2021/05/31 00:14:44;;;;;;;6.77;4.40;;;10.50;99.90;;;;;;5095983;28;20564;-59
2021/05/31 00:17:12;;;;;;;4.40;3.83;;;10.50;99.90;;;;;;5096313;28;20204;-59
2021/05/31 00:19:40;;;;;;;4.93;4.20;;;10.50;99.90;;;;;;5096071;28;20299;-58
2021/05/31 00:22:08;;;;;;;4.43;4.03;;;10.50;99.90;;;;;;5096256;28;20207;-59
2021/05/31 00:24:36;;;;;;;5.20;4.27;;;10.50;99.90;;;;;;5096131;28;20310;-59
2021/05/31 00:27:05;;;;;;;4.80;4.30;;;10.40;99.90;;;;;;5078050;28;20210;-59
2021/05/31 00:29:32;;;;;;;4.60;4.07;;;10.30;99.90;;;;;;5075859;28;20826;-59
2021/05/31 00:32:00;;;;;;;4.83;4.30;;;10.30;99.90;;;;;;5075832;28;20203;-59
2021/05/31 00:34:27;;;;;;;4.90;4.33;;;10.30;99.90;;;;;;5075455;28;20798;-59
2021/05/31 00:36:54;;;;;;;5.20;4.60;;;10.30;99.90;;;;;;5075305;28;20296;-59
2021/05/31 00:39:23;;;;;;;5.27;4.70;;;10.20;99.90;;;;;;5075503;28;20200;-59
2021/05/31 00:41:51;;;;;;;5.80;4.70;;;10.20;99.90;;;;;;5075251;28;20215;-60
2021/05/31 00:44:21;;;;;;;5.07;4.53;;;10.10;99.90;;;;;;5075503;28;20225;-59
2021/05/31 00:46:49;;;;;;;5.83;4.67;;;10.20;99.90;;;;;;5075411;28;20203;-60
2021/05/31 00:49:17;;;;;;;5.77;4.70;;;10.10;99.90;;;;;;5075411;28;20534;-59
2021/05/31 00:51:45;;;;;;;5.73;5.13;;;10.10;99.90;;;;;;5075174;28;20236;-59
2021/05/31 00:54:13;;;;;;;5.57;5.07;;;10.10;99.90;;;;;;5075144;28;20292;-59
2021/05/31 00:56:42;;;;;;;5.60;4.90;;;10.10;99.90;;;;;;5075102;28;20549;-59
2021/05/31 00:59:09;;;;;;;5.27;4.77;;;10.00;99.90;;;;;;5075219;28;20201;-59
2021/05/31 01:01:37;;;;;;;5.70;5.07;;;10.00;99.90;;;;;;5075157;28;20295;-59
2021/05/31 01:04:06;;;;;;;6.67;5.53;;;10.00;99.90;;;;;;5086964;28;20316;-59
2021/05/31 01:06:35;;;;;;;6.70;5.20;;;10.00;99.90;;;;;;5095455;28;20200;-59
2021/05/31 01:09:08;;;;;;;6.77;5.60;;;10.00;99.90;;;;;;5095444;28;20199;-60
2021/05/31 01:11:48;;;;;;;6.53;5.83;;;9.90;99.90;;;;;;5095191;28;20191;-59
2021/05/31 01:14:22;;;;;;;6.67;5.67;;;9.80;99.90;;;;;;5095048;28;20181;-59
2021/05/31 01:16:57;;;;;;;6.70;5.40;;;9.80;99.90;;;;;;5095235;28;20191;-59
2021/05/31 01:19:46;;;;;;;7.30;5.80;;;9.80;99.90;;;;;;5094985;28;20245;-60
2021/05/31 01:22:15;;;;;;;5.93;5.33;;;9.80;99.90;;;;;;5095090;28;20271;-59
2021/05/31 01:24:58;;;;;;;7.77;6.10;;;9.80;99.90;;;;;;5095029;28;20242;-58
2021/05/31 01:27:38;;;;;;;6.53;5.83;;;9.80;99.90;;;;;;5054605;28;20186;-59
2021/05/31 01:30:09;;;;;;;6.20;5.60;;;9.80;99.90;;;;;;5054424;28;20657;-59
2021/05/31 01:32:40;;;;;;;7.33;6.27;;;9.80;99.90;;;;;;5054732;28;20186;-58
2021/05/31 01:35:12;;;;;;;8.27;6.07;;;9.80;99.90;;;;;;5054553;28;20182;-59
2021/05/31 01:37:42;;;;;;;7.50;6.23;;;9.80;99.90;;;;;;5054493;28;20221;-58
2021/05/31 01:40:11;;;;;;;6.53;5.83;;;9.70;99.90;;;;;;5054586;28;20193;-59
2021/05/31 01:42:40;;;;;;;6.53;5.77;;;9.70;99.90;;;;;;5054269;28;20201;-59
2021/05/31 01:45:11;;;;;;;6.73;6.03;;;9.60;99.90;;;;;;5054273;28;20243;-59
2021/05/31 01:47:40;;;;;;;7.30;5.93;;;9.60;99.90;;;;;;5054096;28;20677;-59
2021/05/31 01:50:10;;;;;;;7.10;6.40;;;9.50;99.90;;;;;;5054289;28;20202;-59
2021/05/31 01:52:39;;;;;;;7.47;6.07;;;9.50;99.90;;;;;;5053862;28;20229;-59
2021/05/31 01:55:10;;;;;;;8.77;6.53;;;9.50;99.90;;;;;;5055145;28;20288;-59
2021/05/31 01:57:38;;;;;;;7.13;6.43;;;9.50;99.90;;;;;;5073917;28;20188;-59
2021/05/31 02:00:07;;;;;;;7.27;6.10;;;9.50;99.90;;;;;;5074092;28;20196;-58
2021/05/31 02:02:49;;;;;;;7.13;5.93;;;9.60;99.90;;;;;;5075048;28;20286;-59
2021/05/31 02:05:17;;;;;;;7.17;6.00;;;9.60;99.90;;;;;;5093751;28;20314;-58
2021/05/31 02:07:44;;;;;;;6.90;6.20;;;9.50;99.90;;;;;;5093910;28;20295;-58
2021/05/31 02:10:14;;;;;;;6.50;5.90;;;9.40;99.90;;;;;;5093969;28;20303;-59
2021/05/31 02:12:50;;;;;;;6.60;5.80;;;9.30;99.90;;;;;;5093915;28;20200;-58
2021/05/31 02:15:21;;;;;;;8.23;6.10;;;9.10;99.90;;;;;;5093931;28;20184;-71
2021/05/31 02:18:00;;;;;;;6.50;5.80;;;9.10;99.90;;;;;;5093730;28;20521;-71
2021/05/31 02:20:29;;;;;;;6.27;5.73;;;9.10;99.90;;;;;;5093863;28;20188;-70
2021/05/31 02:22:58;;;;;;;7.57;5.97;;;9.00;99.90;;;;;;5094183;28;20200;-71
2021/05/31 02:25:27;;;;;;;6.53;5.77;;;8.90;99.90;;;;;;5089050;28;20221;-70
2021/05/31 02:27:57;;;;;;;7.00;6.17;;;9.00;99.90;;;;;;5073598;28;20296;-71
2021/05/31 02:30:26;;;;;;;7.47;6.30;;;8.90;99.90;;;;;;5073456;28;20193;-71
2021/05/31 02:32:56;;;;;;;6.50;5.90;;;8.90;99.90;;;;;;5073262;28;20761;-70
2021/05/31 02:35:26;;;;;;;6.50;5.90;;;8.90;99.90;;;;;;5073086;28;20292;-72
2021/05/31 02:37:54;;;;;;;7.33;5.90;;;8.90;99.90;;;;;;5073282;28;20197;-70
2021/05/31 02:40:22;;;;;;;7.07;6.43;;;8.80;99.90;;;;;;5073365;28;20211;-71
2021/05/31 02:42:51;;;;;;;6.27;5.67;;;8.80;99.90;;;;;;5073430;28;20601;-72
2021/05/31 02:45:22;;;;;;;6.20;5.60;;;8.80;99.90;;;;;;5073101;28;20219;-71
2021/05/31 02:47:50;;;;;;;6.27;5.67;;;8.80;99.90;;;;;;5073261;28;20191;-70
2021/05/31 02:50:20;;;;;;;7.47;6.20;;;8.70;99.90;;;;;;5073059;28;20201;-72
2021/05/31 02:52:48;;;;;;;6.20;5.60;;;8.70;99.90;;;;;;5072764;28;20247;-71
2021/05/31 02:55:17;;;;;;;6.73;6.03;;;8.70;99.90;;;;;;5073093;28;20232;-70
2021/05/31 02:57:46;;;;;;;6.50;5.67;;;8.70;99.90;;;;;;5072948;28;20209;-70
2021/05/31 03:00:16;;;;;;;6.80;6.10;;;8.70;99.90;;;;;;5073117;28;20288;-73
2021/05/31 03:02:44;;;;;;;8.13;6.30;;;8.70;99.90;;;;;;5073350;28;20280;-71
2021/05/31 03:05:15;;;;;;;7.70;6.00;;;8.70;99.90;;;;;;5092782;28;20220;-71
2021/05/31 03:07:44;;;;;;;6.90;6.13;;;8.70;99.90;;;;;;5093323;28;20190;-72
2021/05/31 03:10:14;;;;;;;7.00;6.30;;;8.70;99.90;;;;;;5093172;28;20188;-71
2021/05/31 03:12:43;;;;;;;6.27;5.67;;;8.80;99.90;;;;;;5092638;28;20639;-71
2021/05/31 03:15:13;;;;;;;6.83;6.13;;;8.80;99.90;;;;;;5092973;28;20201;-72
2021/05/31 03:17:40;;;;;;;6.73;6.13;;;8.90;99.90;;;;;;5093112;28;20187;-70
2021/05/31 03:20:10;;;;;;;6.03;5.43;;;8.90;99.90;;;;;;5091904;28;20244;-70
2021/05/31 03:22:37;;;;;;;7.77;6.57;;;8.80;99.90;;;;;;5092985;28;20199;-71
2021/05/31 03:25:09;;;;;;;7.63;6.07;;;8.80;99.90;;;;;;5091399;28;20314;-70
2021/05/31 03:27:37;;;;;;;6.93;6.23;;;8.90;99.90;;;;;;5072302;28;20527;-71
2021/05/31 03:30:05;;;;;;;8.20;6.17;;;8.90;99.90;;;;;;5072353;28;20609;-70
2021/05/31 03:32:32;;;;;;;6.93;6.30;;;8.90;99.90;;;;;;5072633;28;20207;-71
2021/05/31 03:35:00;;;;;;;6.47;5.87;;;8.90;99.90;;;;;;5072473;28;20196;-72
2021/05/31 03:37:27;;;;;;;7.63;6.40;;;8.90;99.90;;;;;;5072200;28;20205;-71
2021/05/31 03:39:54;;;;;;;6.63;5.83;;;8.90;99.90;;;;;;5072172;28;20201;-72
2021/05/31 03:42:23;;;;;;;8.73;6.33;;;9.00;99.90;;;;;;5072176;28;20568;-71
2021/05/31 03:44:51;;;;;;;7.07;6.20;;;9.00;99.90;;;;;;5072219;28;20775;-70
2021/05/31 03:47:18;;;;;;;7.00;6.40;;;9.20;99.90;;;;;;5072517;28;20211;-70
2021/05/31 03:49:47;;;;;;;6.67;5.53;;;9.20;99.90;;;;;;5072466;28;20204;-71
2021/05/31 03:52:14;;;;;;;6.60;5.90;;;9.10;99.90;;;;;;5072147;28;20731;-70
2021/05/31 03:54:42;;;;;;;8.83;6.13;;;9.10;99.90;;;;;;5072110;28;20203;-72
2021/05/31 03:57:09;;;;;;;6.50;5.80;;;9.10;99.90;;;;;;5072039;28;20658;-69
2021/05/31 03:59:38;;;;;;;6.97;6.27;;;9.10;99.90;;;;;;5072183;28;20652;-71
2021/05/31 04:02:05;;;;;;;9.23;6.00;;;9.20;99.90;;;;;;5072067;28;20201;-70
2021/05/31 04:04:40;;;;;;;7.33;6.13;;;9.30;99.90;;;;;;5072246;28;20228;-71
2021/05/31 04:12:52;;;;;;;6.50;5.70;;;9.60;99.90;;;;;;5067617;28;20311;-71
2021/05/31 04:15:21;;;;;;;7.87;6.23;;;9.50;99.90;;;;;;5072181;28;20204;-70
2021/05/31 04:17:48;;;;;;;6.57;5.77;;;9.60;99.90;;;;;;5071935;28;20205;-70
2021/05/31 04:20:17;;;;;;;6.53;5.93;;;9.60;99.90;;;;;;5071962;28;20255;-71
2021/05/31 04:22:44;;;;;;;7.57;6.10;;;9.70;99.90;;;;;;5072167;28;20288;-70
2021/05/31 04:25:13;;;;;;;6.47;5.80;;;9.80;99.90;;;;;;5071913;28;20653;-70
2021/05/31 04:27:40;;;;;;;7.10;6.10;;;9.90;99.90;;;;;;5072077;28;20211;-71
2021/05/31 04:30:09;;;;;;;6.33;5.73;;;9.90;99.90;;;;;;5071935;28;20205;-71
2021/05/31 04:32:38;;;;;;;6.60;5.90;;;10.00;99.90;;;;;;5074628;28;20207;-69
2021/05/31 04:35:07;;;;;;;6.97;6.20;;;10.10;99.90;;;;;;5075498;28;20200;-71
2021/05/31 04:37:34;;;;;;;7.23;6.53;;;10.10;99.90;;;;;;5075623;28;20284;-70
2021/05/31 04:40:03;;;;;;;7.10;6.40;;;10.20;99.90;;;;;;5075643;28;20274;-71
2021/05/31 04:42:30;;;;;;;7.70;6.20;;;10.40;99.90;;;;;;5075315;28;20203;-71
2021/05/31 04:44:58;;;;;;;7.90;6.60;;;10.60;99.90;;;;;;5075398;28;20220;-70
2021/05/31 04:47:26;;;;;;;7.80;6.47;;;10.80;99.90;;;;;;5075434;28;20234;-71
2021/05/31 04:49:55;;;;;;;7.47;6.30;;;11.00;99.90;;;;;;5075307;28;20207;-71
2021/05/31 04:52:22;;;;;;;7.37;5.37;;;11.70;99.90;;;;;;5074722;28;20302;-71
2021/05/31 04:54:50;;;;;;;7.37;5.10;;;13.70;99.90;;;;;;5074936;28;20641;-71
2021/05/31 04:57:18;;;;;;;6.35;4.90;;;;;;;;;;5074647;28;20236;-71
2021/05/31 04:59:45;;;;;;;7.05;4.97;;;;;;;;;;5074845;28;20611;-71
2021/05/31 05:02:13;;;;;;;7.47;6.15;;;;;;;;;;5074921;28;20244;-70
2021/05/31 05:04:42;;;;;;;5.75;4.95;;;22.10;99.90;;;;;;5091537;28;20227;-70
2021/05/31 05:07:12;;;;;;;4.78;4.13;;;23.10;99.90;;;;;;5095271;28;20235;-72
2021/05/31 05:09:40;;;;;;;6.00;5.20;;;23.80;99.90;;;;;;5095016;28;20185;-71
2021/05/31 05:12:08;;;;;;;5.82;5.10;;;24.90;99.90;;;;;;5094677;28;20666;-70
2021/05/31 05:14:36;;;;;;;5.55;5.05;;;25.80;99.30;;;;;;5077710;28;20275;-71
2021/05/31 05:17:03;;;;;;;6.03;5.45;;;26.40;97.30;;;;;;5074711;28;20203;-71
2021/05/31 05:19:31;;;;;;;4.88;4.18;;;26.80;94.50;;;;;;5074750;28;20227;-70
2021/05/31 05:21:58;;;;;;;5.18;4.72;;;26.10;95.20;;;;;;5074012;28;20735;-71
2021/05/31 05:24:27;;;;;;;5.78;5.18;;;25.10;95.00;;;;;;5074630;28;20210;-70
2021/05/31 05:26:55;;;;;;;5.30;4.80;;;23.80;96.70;;;;;;5074191;28;20619;-70
2021/05/31 05:29:22;;;;;;;5.00;4.53;;;23.20;97.50;;;;;;5074288;28;20663;-70
2021/05/31 05:31:49;;;;;;;4.70;4.30;;;23.00;98.10;;;;;;5074062;28;20200;-69
2021/05/31 05:34:17;;;;;;;6.10;5.50;;;22.90;97.80;;;;;;5073060;28;20247;-69
2021/05/31 05:36:49;;;;;;;5.38;4.80;;;22.50;98.40;;;;;;5071641;28;20695;-71
2021/05/31 05:42:43;;;;;;;6.93;5.18;;;19.40;99.90;;;;;;5048637;28;20197;-70
2021/05/31 05:47:57;;;;;;;7.77;5.20;;;17.10;99.90;;;;;;5074216;28;20185;-71
2021/05/31 05:50:24;;;;;;;5.70;5.10;;;16.30;99.90;;;;;;5074065;28;20261;-70
2021/05/31 05:52:53;;;;;;;7.23;5.50;;;15.80;99.90;;;;;;5072270;28;20308;-73
2021/05/31 05:55:20;;;;;;;5.70;5.00;;;15.60;99.90;;;;;;5070976;28;20223;-72
2021/05/31 05:57:49;;;;;;;7.03;5.30;;;15.60;99.90;;;;;;5071889;28;20295;-72
2021/05/31 06:00:20;;;;;;;6.70;5.47;;;15.50;99.90;;;;;;5071823;28;20208;-73
2021/05/31 06:02:47;;;;;;;5.70;5.10;;;15.60;99.90;;;;;;5073011;28;20192;-74
2021/05/31 06:05:15;;;;;;;6.28;4.50;;;15.60;99.90;;;;;;5081468;28;20213;-74
2021/05/31 06:07:43;;;;;;;5.83;5.10;;;15.70;99.90;;;;;;5070747;28;20201;-74
2021/05/31 06:10:13;;;;;;;5.57;5.00;;;15.80;99.90;;;;;;5068838;28;20670;-72
2021/05/31 06:12:40;;;;;;;6.00;4.93;;;15.80;99.90;;;;;;5066198;28;20777;-75
2021/05/31 06:15:11;;;;;;;5.70;4.80;;;16.00;99.90;;;;;;5051092;28;20197;-74
2021/05/31 06:17:38;;;;;;;5.18;4.72;;;16.10;99.90;;;;;;5051559;28;20181;-74
2021/05/31 06:20:07;;;;;;;4.97;4.57;;;16.30;99.90;;;;;;5051599;28;20301;-72
2021/05/31 06:22:39;;;;;;;7.50;4.78;;;16.50;99.90;;;;;;5051449;28;20628;-71
2021/05/31 06:25:09;;;;;;;5.95;4.55;;;16.70;99.90;;;;;;5053136;28;20212;-72
2021/05/31 06:27:37;;;;;;;5.00;4.43;;;16.70;99.90;;;;;;5071336;28;20295;-72
2021/05/31 06:30:06;;;;;;;5.18;4.68;;;16.80;99.90;;;;;;5071447;28;20207;-73
2021/05/31 06:32:35;;;;;;;5.88;4.78;;;16.80;99.90;;;;;;5071115;28;20203;-72
2021/05/31 06:35:03;;;;;;;5.28;4.85;;;16.90;99.90;;;;;;5071024;28;20678;-67
2021/05/31 06:37:37;;;;;;;5.80;5.30;;;16.90;99.90;;;;;;5071311;28;20196;-67
2021/05/31 06:40:07;;;;;;;5.07;4.57;;;17.00;99.90;;;;;;5071260;28;20185;-70
2021/05/31 06:42:36;;;;;;;6.47;5.18;;;17.00;99.90;;;;;;5071130;28;20201;-69
2021/05/31 06:45:07;;;;;;;5.38;4.82;;;17.10;99.90;;;;;;5071187;28;20336;-68
2021/05/31 06:47:36;;;;;;;7.00;5.65;;;17.10;99.90;;;;;;5071262;28;20329;-69
2021/05/31 06:50:06;;;;;;;5.63;4.97;;;17.10;99.90;;;;;;5070743;28;20204;-71
2021/05/31 06:52:34;;;;;;;5.15;4.65;;;17.20;99.90;;;;;;5070487;28;20240;-64
2021/05/31 06:55:04;;;;;;;7.90;5.18;;;17.10;99.90;;;;;;5075908;28;20642;-66
2021/05/31 06:57:31;;;;;;;6.30;5.50;;;17.20;99.90;;;;;;5075232;28;20572;-64
2021/05/31 06:59:59;;;;;;;5.90;5.32;;;17.30;99.90;;;;;;5083458;28;20201;-76
2021/05/31 07:02:26;;;;;;;7.43;5.03;;;17.30;99.90;;;;;;5073297;28;20676;-75
2021/05/31 07:04:55;;;;;;;6.03;5.05;;;17.20;99.90;;;;;;5070101;28;20207;-67
2021/05/31 07:07:22;;;;;;;6.25;5.10;;;17.20;99.90;;;;;;5070719;28;20228;-68
2021/05/31 07:09:50;;;;;;;5.32;4.82;;;17.20;99.90;;;;;;5071053;28;20292;-68
2021/05/31 07:12:17;;;;;;;6.22;5.63;;;17.30;99.90;;;;;;5090715;28;20206;-65
2021/05/31 07:14:47;;;;;;;6.28;5.07;;;17.30;99.90;;;;;;5090956;28;20213;-65
2021/05/31 07:17:15;;;;;;;4.70;4.30;;;17.20;99.90;;;;;;5090815;28;20192;-65
2021/05/31 07:19:44;;;;;;;4.57;4.18;;;17.20;99.90;;;;;;5090617;28;20200;-65
2021/05/31 07:22:15;;;;;;;6.05;4.90;;;17.20;99.90;;;;;;5090767;28;20200;-74
2021/05/31 07:24:42;;;;;;;5.57;4.10;;;17.30;99.90;;;;;;5090433;28;20707;-72
2021/05/31 07:27:10;;;;;;;5.28;4.10;;;17.30;99.90;;;;;;5074617;28;20319;-72
2021/05/31 07:29:38;;;;;;;6.88;3.70;;;17.30;99.90;;;;;;5091196;28;20235;-67
2021/05/31 07:32:06;;;;;;;6.50;4.60;;;17.30;99.90;;;;;;5090610;28;20196;-68
2021/05/31 07:34:34;;;;;;;5.55;4.30;;;17.40;99.90;;;;;;5090275;28;20291;-75
2021/05/31 07:37:02;;;;;;;4.38;3.97;;;17.40;99.90;;;;;;5090153;28;20192;-76
2021/05/31 07:39:31;;;;;;;4.32;3.72;;;17.40;99.90;;;;;;5090690;28;20291;-73
2021/05/31 07:41:58;;;;;;;8.30;4.20;;;17.50;99.90;;;;;;5090191;28;20655;-68
2021/05/31 07:44:25;;;;;;;4.43;3.85;;;17.50;99.90;;;;;;5090386;28;20235;-65
2021/05/31 07:46:53;;;;;;;5.60;3.28;;;17.50;99.90;;;;;;5090064;28;20216;-63
2021/05/31 07:49:20;;;;;;;7.05;3.95;;;17.50;99.90;;;;;;5090403;28;20196;-64
2021/05/31 07:51:48;;;;;;;6.28;4.00;;;17.50;99.90;;;;;;5090042;28;20707;-70
2021/05/31 07:54:16;;;;;;;4.50;3.85;;;17.50;99.90;;;;;;5090286;28;20291;-65
2021/05/31 07:56:45;;;;;;;5.32;3.40;;;17.50;99.90;;;;;;5075111;28;20200;-70
2021/05/31 07:59:12;;;;;;;3.67;3.38;;;17.40;99.90;;;;;;5069949;28;20203;-72
2021/05/31 08:01:39;;;;;;;4.15;3.40;;;17.40;99.90;;;;;;5075869;28;20203;-70
2021/05/31 08:04:07;;;;;;;4.20;3.78;;;17.40;99.90;;;;;;5090136;28;20257;-69
2021/05/31 08:06:35;;;;;;;4.00;3.70;;;17.40;99.90;;;;;;5091198;28;20224;-71
2021/05/31 08:09:05;;;;;;;5.22;4.00;;;17.30;99.90;;;;;;5094147;28;20200;-71
2021/05/31 08:11:32;;;;;;;5.30;4.68;;;17.20;99.90;;;;;;5093780;28;20707;-73
2021/05/31 08:14:01;;;;;;;4.70;4.30;;;17.10;99.90;;;;;;5093522;28;20753;-69
2021/05/31 08:16:29;;;;;;;4.05;3.70;;;16.90;99.90;;;;;;5093762;28;20303;-75
2021/05/31 08:18:57;;;;;;;6.93;4.30;;;16.70;99.90;;;;;;5093583;28;20200;-74
2021/05/31 08:21:24;;;;;;;4.85;3.90;;;16.60;99.90;;;;;;5093949;28;20294;-75
2021/05/31 08:23:52;;;;;;;4.97;4.45;;;16.50;99.90;;;;;;5093654;28;20206;-69
2021/05/31 08:26:20;;;;;;;5.03;4.38;;;16.40;99.90;;;;;;5081367;28;20703;-68
2021/05/31 08:28:47;;;;;;;4.40;4.00;;;16.40;99.90;;;;;;5073289;28;20255;-73
2021/05/31 08:31:16;;;;;;;3.90;3.60;;;16.40;99.90;;;;;;5073196;28;20764;-73
2021/05/31 08:33:44;;;;;;;4.82;4.07;;;16.40;99.90;;;;;;5073207;28;20216;-68
2021/05/31 08:36:11;;;;;;;4.40;3.42;;;16.60;99.90;;;;;;5072706;28;20561;-70
2021/05/31 08:38:39;;;;;;;5.00;3.50;;;16.50;99.90;;;;;;5073033;28;20201;-72
2021/05/31 08:41:06;;;;;;;6.10;4.43;;;16.60;99.90;;;;;;5073085;28;20301;-73
2021/05/31 08:43:33;;;;;;;5.85;5.13;;;16.80;99.90;;;;;;5072941;28;20205;-74
2021/05/31 08:46:01;;;;;;;4.75;4.28;;;17.00;99.90;;;;;;5072341;28;20255;-72
2021/05/31 08:48:31;;;;;;;5.43;4.28;;;17.10;99.90;;;;;;5072903;28;20291;-66
2021/05/31 08:50:59;;;;;;;7.07;4.47;;;17.10;99.90;;;;;;5072973;28;20224;-68
2021/05/31 08:53:26;;;;;;;4.75;4.20;;;17.10;99.90;;;;;;5072889;28;20195;-67
2021/05/31 08:55:54;;;;;;;5.95;4.72;;;17.00;99.90;;;;;;5073167;28;20291;-68
2021/05/31 08:58:21;;;;;;;4.68;3.72;;;17.00;99.90;;;;;;5073035;28;20205;-66
2021/05/31 09:00:48;;;;;;;4.93;4.53;;;17.10;99.90;;;;;;5073019;28;20232;-65
2021/05/31 09:03:18;;;;;;;4.85;4.45;;;17.20;99.90;;;;;;5091846;28;20775;-64
2021/05/31 09:05:49;;;;;;;4.88;3.83;;;17.40;99.90;;;;;;5093074;28;20206;-65
2021/05/31 09:08:18;;;;;;;3.60;3.30;;;17.50;99.90;;;;;;5093038;28;20282;-64
2021/05/31 09:10:47;;;;;;;5.60;3.53;;;17.70;99.90;;;;;;5093290;28;20231;-65
2021/05/31 09:13:26;;;;;;;4.80;3.60;;;18.00;99.90;;;;;;5092622;28;20238;-64
2021/05/31 09:16:12;;;;;;;5.50;4.15;;;18.20;99.90;;;;;;5093067;28;20271;-65
2021/05/31 09:18:44;;;;;;;3.83;3.50;;;18.30;99.90;;;;;;5091558;28;20271;-64
2021/05/31 09:21:21;;;;;;;4.00;3.60;;;18.40;99.90;;;;;;5092693;28;20267;-65
2021/05/31 09:23:53;;;;;;;4.30;3.90;;;18.60;99.90;;;;;;5092745;28;20228;-74
2021/05/31 09:26:20;;;;;;;4.43;4.03;;;18.70;99.90;;;;;;5080195;28;20208;-65
2021/05/31 09:28:56;;;;;;;4.53;4.13;;;18.60;99.90;;;;;;5072256;28;20201;-66
2021/05/31 09:31:24;;;;;;;3.97;3.65;;;18.80;99.90;;;;;;5072360;28;20206;-74
2021/05/31 09:34:00;;;;;;;4.47;4.07;;;19.00;99.90;;;;;;5072512;28;20203;-68
2021/05/31 09:36:35;;;;;;;4.15;3.75;;;18.80;99.90;;;;;;5072046;28;20185;-73
2021/05/31 09:39:04;;;;;;;4.28;3.88;;;18.80;99.90;;;;;;5072424;28;20283;-69
2021/05/31 09:41:33;;;;;;;4.60;4.03;;;18.90;99.90;;;;;;5072253;28;20292;-71
2021/05/31 09:44:02;;;;;;;4.32;3.50;;;19.00;99.90;;;;;;5071986;28;20207;-69
2021/05/31 09:46:38;;;;;;;3.95;3.40;;;19.00;99.90;;;;;;5071886;28;20224;-67
2021/05/31 09:49:16;;;;;;;5.93;4.40;;;18.90;99.90;;;;;;5071834;28;20622;-69
2021/05/31 09:51:57;;;;;;;4.72;3.95;;;18.80;99.90;;;;;;5071610;28;20224;-76
2021/05/31 09:54:35;;;;;;;5.97;3.78;;;18.60;99.90;;;;;;5072007;28;20184;-65
2021/05/31 09:57:16;;;;;;;4.22;3.83;;;18.60;99.90;;;;;;5071324;28;20291;-65
2021/05/31 09:59:45;;;;;;;3.83;3.47;;;18.50;99.90;;;;;;5071862;28;20247;-65
2021/05/31 10:02:16;;;;;;;3.53;3.22;;;18.50;99.90;;;;;;5082106;28;20211;-64
2021/05/31 10:04:52;;;;;;;4.05;3.30;;;18.40;99.90;;;;;;5091755;28;20191;-65
2021/05/31 10:07:26;;;;;;;3.55;3.25;;;18.30;99.90;;;;;;5091842;28;20301;-68
2021/05/31 10:09:53;;;;;;;3.72;3.40;;;18.20;99.90;;;;;;5091615;28;20707;-66
2021/05/31 10:12:21;;;;;;;3.60;3.20;;;18.30;99.90;;;;;;5091612;28;20210;-66
2021/05/31 10:14:50;;;;;;;3.53;3.17;;;18.40;99.90;;;;;;5092136;28;20739;-70
2021/05/31 10:17:18;;;;;;;3.83;3.33;;;18.50;99.90;;;;;;5092808;28;20233;-78
2021/05/31 10:19:45;;;;;;;3.20;2.90;;;18.50;99.90;;;;;;5092685;28;20199;-70
2021/05/31 10:22:13;;;;;;;2.92;2.72;;;18.40;99.90;;;;;;5092644;28;20291;-66
2021/05/31 10:24:43;;;;;;;3.20;2.53;;;18.30;99.90;;;;;;5091450;28;20671;-67
2021/05/31 10:27:14;;;;;;;3.03;2.60;;;18.10;99.90;;;;;;5073571;28;20250;-70
2021/05/31 10:29:42;;;;;;;3.25;2.50;;;17.90;99.90;;;;;;5072081;28;20187;-69
2021/05/31 10:32:12;;;;;;;3.50;2.88;;;17.90;99.90;;;;;;5071655;28;20291;-72
2021/05/31 10:34:44;;;;;;;3.60;2.75;;;17.80;99.90;;;;;;5072305;28;20676;-73
2021/05/31 10:37:20;;;;;;;3.40;3.10;;;17.70;99.90;;;;;;5073192;28;20276;-75
2021/05/31 10:40:05;;;;;;;3.67;2.53;;;17.70;99.90;;;;;;5072632;28;20273;-66
2021/05/31 10:42:45;;;;;;;3.35;3.00;;;17.80;99.90;;;;;;5071714;28;20203;-69
2021/05/31 10:45:25;;;;;;;3.38;2.42;;;17.90;99.90;;;;;;5071186;28;20189;-68
2021/05/31 10:48:05;;;;;;;3.13;2.83;;;18.10;99.90;;;;;;5071055;28;20296;-68
2021/05/31 10:50:34;;;;;;;4.05;2.70;;;18.40;99.90;;;;;;5070978;28;20188;-68
2021/05/31 10:53:03;;;;;;;3.90;2.63;;;18.60;99.90;;;;;;5070995;28;20204;-68
2021/05/31 10:55:31;;;;;;;2.85;2.58;;;18.80;99.90;;;;;;5070768;28;20574;-74
2021/05/31 10:58:00;;;;;;;2.75;2.25;;;18.70;99.90;;;;;;5070999;28;20303;-73
2021/05/31 11:00:30;;;;;;;5.57;2.35;;;18.80;99.90;;;;;;5071351;28;20222;-76
2021/05/31 11:03:09;;;;;;;3.80;2.67;;;18.90;99.90;;;;;;5087944;28;20196;-76
2021/05/31 11:05:36;;;;;;;3.25;2.30;;;18.90;99.90;;;;;;5090807;28;20310;-74
2021/05/31 11:08:07;;;;;;;3.17;2.63;;;18.80;99.90;;;;;;5090806;28;20316;-74
2021/05/31 11:10:37;;;;;;;3.00;2.70;;;18.80;99.90;;;;;;5090900;28;20286;-75
2021/05/31 11:13:15;;;;;;;2.92;2.38;;;18.70;99.90;;;;;;5091239;28;20556;-73
2021/05/31 11:15:44;;;;;;;4.15;3.13;;;18.60;99.90;;;;;;5090929;28;20200;-75
2021/05/31 11:18:22;;;;;;;5.00;2.75;;;18.50;99.90;;;;;;5091020;28;20239;-76
2021/05/31 11:20:50;;;;;;;3.08;2.78;;;18.50;99.90;;;;;;5090646;28;20190;-74
2021/05/31 11:23:17;;;;;;;2.85;2.65;;;18.50;99.90;;;;;;5091108;28;20204;-74
2021/05/31 11:25:48;;;;;;;2.75;2.42;;;18.60;99.90;;;;;;5084057;28;20293;-74
2021/05/31 11:28:15;;;;;;;3.30;3.00;;;18.80;99.90;;;;;;5070514;28;20300;-75
2021/05/31 11:30:42;;;;;;;3.17;2.88;;;18.80;99.90;;;;;;5070195;28;20219;-75
2021/05/31 11:33:14;;;;;;;3.20;2.70;;;18.70;99.90;;;;;;5070180;28;20197;-74
2021/05/31 11:35:44;;;;;;;2.72;2.53;;;18.80;99.90;;;;;;5070452;28;20181;-74
2021/05/31 11:38:12;;;;;;;3.05;2.75;;;18.90;99.90;;;;;;5070531;28;20267;-74
2021/05/31 11:40:41;;;;;;;3.10;2.80;;;19.00;99.90;;;;;;5070144;28;20302;-65
2021/05/31 11:43:13;;;;;;;3.63;2.70;;;19.00;99.90;;;;;;5073906;28;20208;-65
2021/05/31 11:45:46;;;;;;;3.25;2.95;;;19.20;99.90;;;;;;5074462;28;20538;-66
2021/05/31 11:48:15;;;;;;;3.22;2.60;;;19.20;99.90;;;;;;5074312;28;20217;-65
2021/05/31 11:50:44;;;;;;;3.00;2.70;;;19.30;99.90;;;;;;5074017;28;20287;-64
2021/05/31 11:53:13;;;;;;;3.85;2.70;;;19.20;99.90;;;;;;5074050;28;20185;-64
2021/05/31 11:55:41;;;;;;;3.95;3.10;;;19.20;99.90;;;;;;5074113;28;20304;-66
2021/05/31 11:58:11;;;;;;;2.60;2.40;;;19.20;99.90;;;;;;5074265;28;20196;-68
2021/05/31 12:00:42;;;;;;;4.47;2.67;;;19.20;99.90;;;;;;5073922;28;20645;-73
2021/05/31 12:03:16;;;;;;;3.33;3.03;;;19.30;99.90;;;;;;5092183;28;20640;-65
2021/05/31 12:05:44;;;;;;;4.95;3.47;;;19.30;99.90;;;;;;5093842;28;20279;-65
2021/05/31 12:08:13;;;;;;;5.13;3.25;;;19.30;99.90;;;;;;5094113;28;20215;-66
2021/05/31 12:10:42;;;;;;;4.03;2.80;;;19.20;99.90;;;;;;5093997;28;20196;-66
2021/05/31 12:13:11;;;;;;;3.20;2.90;;;19.10;99.90;;;;;;5094104;28;20203;-66
2021/05/31 12:15:39;;;;;;;3.00;2.80;;;19.20;99.90;;;;;;5093997;28;20204;-64
2021/05/31 12:18:11;;;;;;;4.53;3.03;;;19.20;99.90;;;;;;5094184;28;20287;-65
2021/05/31 12:20:39;;;;;;;3.13;2.88;;;19.40;99.90;;;;;;5093793;28;20310;-66
2021/05/31 12:23:16;;;;;;;4.82;3.03;;;19.40;99.90;;;;;;5094108;28;20411;-66
2021/05/31 12:25:43;;;;;;;3.05;2.75;;;19.40;99.90;;;;;;5087004;28;20582;-65
2021/05/31 12:28:12;;;;;;;2.75;2.55;;;19.40;99.90;;;;;;5073228;28;20566;-65
2021/05/31 12:30:44;;;;;;;2.60;2.40;;;19.40;99.90;;;;;;5073407;28;20204;-71
2021/05/31 12:33:12;;;;;;;4.57;2.75;;;19.50;99.90;;;;;;5073827;28;20272;-73
2021/05/31 12:35:40;;;;;;;2.88;2.67;;;19.50;99.90;;;;;;5073403;28;20292;-65
2021/05/31 12:38:07;;;;;;;2.83;2.60;;;19.40;99.90;;;;;;5073348;28;20291;-66
2021/05/31 12:40:36;;;;;;;2.75;2.55;;;19.30;99.90;;;;;;5073229;28;20205;-66
2021/05/31 12:43:04;;;;;;;3.90;2.75;;;19.20;99.90;;;;;;5073016;28;20608;-65
2021/05/31 12:45:33;;;;;;;3.35;2.67;;;19.20;99.90;;;;;;5073337;28;20249;-66
2021/05/31 12:48:13;;;;;;;4.03;2.67;;;19.10;99.90;;;;;;5073068;28;20825;-68
2021/05/31 12:50:40;;;;;;;4.05;2.55;;;19.20;99.90;;;;;;5072768;28;20276;-69
2021/05/31 12:53:11;;;;;;;2.70;2.50;;;19.30;99.50;;;;;;5073028;28;20185;-71
2021/05/31 12:55:39;;;;;;;2.70;2.50;;;19.30;99.90;;;;;;5073168;28;20601;-76
2021/05/31 12:58:12;;;;;;;2.47;2.28;;;19.40;99.90;;;;;;5073052;28;20203;-69
2021/05/31 13:00:42;;;;;;;2.60;2.40;;;19.40;99.90;;;;;;5072946;28;20292;-68
2021/05/31 13:03:10;;;;;;;4.20;2.40;;;19.40;99.60;;;;;;5090771;28;20682;-67
2021/05/31 13:05:39;;;;;;;3.38;2.70;;;19.30;99.60;;;;;;5093286;28;20206;-66
2021/05/31 13:08:08;;;;;;;3.00;2.70;;;19.40;99.60;;;;;;5093143;28;20250;-68
2021/05/31 13:10:38;;;;;;;2.80;2.40;;;19.50;99.90;;;;;;5092965;28;20294;-67
2021/05/31 13:13:07;;;;;;;4.05;2.60;;;19.50;99.90;;;;;;5092850;28;20712;-65
2021/05/31 13:15:38;;;;;;;2.72;2.53;;;19.50;99.90;;;;;;5092689;28;20210;-72